createdAt,value
2024-03-09T00:00:39.735Z,14.25
2024-03-09T00:03:31.332Z,17.20
2024-03-09T00:06:01.057Z,17.30
2024-03-09T00:08:28.885Z,14.73
2024-03-09T00:10:56.185Z,15.82
2024-03-09T00:13:24.109Z,14.40
2024-03-09T00:15:52.494Z,11.85
2024-03-09T00:18:29.217Z,16.10
2024-03-09T00:21:03.702Z,15.13
2024-03-09T00:23:31.354Z,14.45
2024-03-09T00:25:59.457Z,11.15
2024-03-09T00:28:30.158Z,13.77
2024-03-09T00:30:57.967Z,11.70
2024-03-09T00:33:25.843Z,12.95
2024-03-09T00:35:55.676Z,11.57
2024-03-09T00:38:23.401Z,12.35
2024-03-09T00:40:50.981Z,13.02
2024-03-09T00:43:18.207Z,14.93
2024-03-09T00:45:46.066Z,13.88
2024-03-09T00:48:14.653Z,16.63
2024-03-09T00:50:43.626Z,16.10
2024-03-09T00:53:11.059Z,18.33
2024-03-09T00:55:38.828Z,17.63
2024-03-09T00:58:08.661Z,13.52
2024-03-09T01:00:38.459Z,12.52
2024-03-09T01:03:05.897Z,14.90
2024-03-09T01:05:34.260Z,13.50
2024-03-09T01:08:02.429Z,12.40
2024-03-09T01:10:30.201Z,13.50
2024-03-09T01:12:57.696Z,16.17
2024-03-09T01:15:25.482Z,12.50
2024-03-09T01:17:53.874Z,15.05
2024-03-09T01:20:21.769Z,13.98
2024-03-09T01:22:50.550Z,16.42
2024-03-09T01:25:18.575Z,15.85
2024-03-09T01:27:46.072Z,13.93
2024-03-09T01:30:13.950Z,11.27
2024-03-09T01:32:41.750Z,14.75
2024-03-09T01:35:10.846Z,13.48
2024-03-09T01:37:38.758Z,14.77
2024-03-09T01:40:07.881Z,13.30
2024-03-09T01:42:35.392Z,13.80
2024-03-09T01:45:07.098Z,14.90
2024-03-09T01:47:35.374Z,15.82
2024-03-09T01:50:03.828Z,16.17
2024-03-09T01:52:34.520Z,18.60
2024-03-09T01:55:05.936Z,18.98
2024-03-09T01:57:36.709Z,18.48
2024-03-09T02:00:06.425Z,19.67
2024-03-09T02:02:35.099Z,20.27
2024-03-09T02:05:12.143Z,14.38
2024-03-09T02:07:41.841Z,18.33
2024-03-09T02:10:13.428Z,17.77
2024-03-09T02:12:44.132Z,15.27
2024-03-09T02:15:19.023Z,14.00
2024-03-09T02:17:49.426Z,9.35
2024-03-09T02:20:18.889Z,9.07
2024-03-09T02:22:48.823Z,9.63
2024-03-09T02:25:19.723Z,10.45
2024-03-09T02:27:47.410Z,11.13
2024-03-09T02:30:15.340Z,11.90
2024-03-09T02:32:44.156Z,11.38
2024-03-09T02:35:12.260Z,9.52
2024-03-09T02:37:40.421Z,8.88
2024-03-09T02:40:08.941Z,8.85
2024-03-09T02:42:40.425Z,9.35
2024-03-09T02:45:08.843Z,8.65
2024-03-09T02:47:36.403Z,10.93
2024-03-09T02:50:05.155Z,10.73
2024-03-09T02:52:32.672Z,10.73
2024-03-09T02:55:00.396Z,11.05
2024-03-09T02:57:27.910Z,8.77
2024-03-09T02:59:55.549Z,9.02
2024-03-09T03:02:41.500Z,8.88
2024-03-09T03:05:09.681Z,7.68
2024-03-09T03:07:37.109Z,9.18
2024-03-09T03:10:05.033Z,10.20
2024-03-09T03:12:32.567Z,9.32
2024-03-09T03:15:01.001Z,10.07
2024-03-09T03:17:28.526Z,10.32
2024-03-09T03:19:56.235Z,9.88
2024-03-09T03:22:25.573Z,12.23
2024-03-09T03:24:53.187Z,11.40
2024-03-09T03:27:22.732Z,11.65
2024-03-09T03:29:52.412Z,10.88
2024-03-09T03:32:19.869Z,10.68
2024-03-09T03:34:48.322Z,12.05
2024-03-09T03:37:19.343Z,10.43
2024-03-09T03:39:47.031Z,11.43
2024-03-09T03:42:14.628Z,12.27
2024-03-09T03:44:43.372Z,11.15
2024-03-09T03:47:10.641Z,12.30
2024-03-09T03:49:38.238Z,12.52
2024-03-09T03:52:05.695Z,11.80
2024-03-09T03:54:33.317Z,10.23
2024-03-09T03:57:00.642Z,12.02
2024-03-09T03:59:28.418Z,12.45
2024-03-09T04:01:55.865Z,13.57
2024-03-09T04:04:23.456Z,13.60
2024-03-09T04:06:51.079Z,15.13
2024-03-09T04:09:18.985Z,13.93
2024-03-09T04:11:50.709Z,14.13
2024-03-09T04:14:18.698Z,14.43
2024-03-09T04:16:46.501Z,15.45
2024-03-09T04:19:15.109Z,13.20
2024-03-09T04:21:42.455Z,14.45
2024-03-09T04:24:11.107Z,13.85
2024-03-09T04:26:38.681Z,15.13
2024-03-09T04:29:06.665Z,16.58
2024-03-09T04:31:34.371Z,16.27
2024-03-09T04:34:03.932Z,14.50
2024-03-09T04:36:31.254Z,15.48
2024-03-09T04:39:02.333Z,12.98
2024-03-09T04:41:30.237Z,12.93
2024-03-09T04:43:57.899Z,13.93
2024-03-09T04:46:25.330Z,13.50
2024-03-09T04:48:52.993Z,13.85
2024-03-09T04:51:20.496Z,14.75
2024-03-09T04:53:48.380Z,13.70
2024-03-09T04:56:16.263Z,15.30
2024-03-09T04:58:44.013Z,15.90
2024-03-09T05:01:11.709Z,15.02
2024-03-09T05:03:39.288Z,15.20
2024-03-09T05:06:07.477Z,16.23
2024-03-09T05:08:35.179Z,16.85
2024-03-09T05:11:02.625Z,16.55
2024-03-09T05:13:30.469Z,19.90
2024-03-09T05:15:57.910Z,19.95
2024-03-09T05:18:25.704Z,21.85
2024-03-09T05:20:53.252Z,20.02
2024-03-09T05:23:22.041Z,20.50
2024-03-09T05:25:49.694Z,18.98
2024-03-09T05:28:21.386Z,18.67
2024-03-09T05:30:48.819Z,17.23
2024-03-09T05:33:16.607Z,19.33
2024-03-09T05:35:44.228Z,19.15
2024-03-09T05:38:12.198Z,20.02
2024-03-09T05:40:39.894Z,19.00
2024-03-09T05:43:13.629Z,18.63
2024-03-09T05:45:42.692Z,19.45
2024-03-09T05:48:12.395Z,20.35
2024-03-09T05:50:40.242Z,23.63
2024-03-09T05:53:10.034Z,21.75
2024-03-09T05:55:40.491Z,22.27
2024-03-09T05:58:08.873Z,22.23
2024-03-09T06:00:37.527Z,22.55
2024-03-09T06:03:09.263Z,19.58
2024-03-09T06:05:37.197Z,20.83
2024-03-09T06:08:05.413Z,17.30
2024-03-09T06:10:36.503Z,16.02
2024-03-09T06:13:06.836Z,18.10
2024-03-09T06:15:34.668Z,17.90
2024-03-09T06:18:02.852Z,18.40
2024-03-09T06:20:33.400Z,18.65
2024-03-09T06:23:01.943Z,19.88
2024-03-09T06:25:31.175Z,20.90
2024-03-09T06:28:04.352Z,18.92
2024-03-09T06:30:33.342Z,18.80
2024-03-09T06:33:03.603Z,19.23
2024-03-09T06:35:33.766Z,19.33
2024-03-09T06:38:03.403Z,19.92
2024-03-09T06:40:33.564Z,20.58
2024-03-09T06:43:03.078Z,21.35
2024-03-09T06:45:30.626Z,18.77
2024-03-09T06:47:59.467Z,19.35
2024-03-09T06:50:31.341Z,19.05
2024-03-09T06:53:02.490Z,20.20
2024-03-09T06:55:31.097Z,20.55
2024-03-09T06:58:04.134Z,19.83
2024-03-09T07:00:36.332Z,19.73
2024-03-09T07:03:08.644Z,20.15
2024-03-09T07:05:37.351Z,19.42
2024-03-09T07:08:07.417Z,19.10
2024-03-09T07:10:37.481Z,18.40
2024-03-09T07:13:08.554Z,19.58
2024-03-09T07:15:37.337Z,18.15
2024-03-09T07:18:12.298Z,17.75
2024-03-09T07:20:40.728Z,19.08
2024-03-09T07:23:08.621Z,18.38
2024-03-09T07:25:36.804Z,17.23
2024-03-09T07:28:04.819Z,21.02
2024-03-09T07:30:34.447Z,19.13
2024-03-09T07:33:03.304Z,19.27
2024-03-09T07:35:31.703Z,19.98
2024-03-09T07:38:03.288Z,20.90
2024-03-09T07:40:31.716Z,20.95
2024-03-09T07:42:59.564Z,21.30
2024-03-09T07:45:31.502Z,20.10
2024-03-09T07:48:00.854Z,20.42
2024-03-09T07:50:29.460Z,19.40
2024-03-09T07:52:58.757Z,19.25
2024-03-09T07:55:28.374Z,20.38
2024-03-09T07:58:09.692Z,20.33
2024-03-09T08:00:46.969Z,20.33
2024-03-09T08:03:15.554Z,20.85
2024-03-09T08:05:43.717Z,22.13
2024-03-09T08:08:14.221Z,19.92
2024-03-09T08:10:48.874Z,20.10
2024-03-09T08:13:21.321Z,20.02
2024-03-09T08:15:48.987Z,16.23
2024-03-09T08:18:17.330Z,20.83
2024-03-09T08:20:44.747Z,21.23
2024-03-09T08:23:14.015Z,21.17
2024-03-09T08:25:43.775Z,19.38
2024-03-09T08:28:11.758Z,21.20
2024-03-09T08:30:39.411Z,20.10
2024-03-09T08:33:07.370Z,22.25
2024-03-09T08:35:35.032Z,22.17
2024-03-09T08:38:03.043Z,21.33
2024-03-09T08:40:33.656Z,21.75
2024-03-09T08:43:01.705Z,17.63
2024-03-09T08:45:30.765Z,21.40
2024-03-09T08:47:59.012Z,21.20
2024-03-09T08:50:27.140Z,18.75
2024-03-09T08:52:57.131Z,21.50
2024-03-09T08:55:25.292Z,20.80
2024-03-09T08:57:53.228Z,20.95
2024-03-09T09:00:24.445Z,21.25
2024-03-09T09:02:52.644Z,20.45
2024-03-09T09:05:23.026Z,19.88
2024-03-09T09:07:53.123Z,20.63
2024-03-09T09:10:24.068Z,21.33
2024-03-09T09:12:51.787Z,19.33
2024-03-09T09:15:20.697Z,19.33
2024-03-09T09:17:50.495Z,19.05
2024-03-09T09:20:20.844Z,21.00
2024-03-09T09:22:49.870Z,21.08
2024-03-09T09:25:20.886Z,19.30
2024-03-09T09:27:48.535Z,18.65
2024-03-09T09:30:16.257Z,19.23
2024-03-09T09:32:44.966Z,19.60
2024-03-09T09:35:13.910Z,19.50
2024-03-09T09:37:41.998Z,18.42
2024-03-09T09:40:10.313Z,18.02
2024-03-09T09:42:38.690Z,17.48
2024-03-09T09:45:06.910Z,16.27
2024-03-09T09:47:35.590Z,18.70
2024-03-09T09:50:03.968Z,16.80
2024-03-09T09:52:34.369Z,16.90
2024-03-09T09:55:03.552Z,16.77
2024-03-09T09:57:33.170Z,17.30
2024-03-09T10:00:00.832Z,16.67
2024-03-09T10:02:28.952Z,17.88
2024-03-09T10:04:57.141Z,17.70
2024-03-09T10:07:25.995Z,16.02
2024-03-09T10:09:53.514Z,16.30
2024-03-09T10:12:25.115Z,16.67
2024-03-09T10:14:53.738Z,16.65
2024-03-09T10:17:22.503Z,17.10
2024-03-09T10:19:50.633Z,16.90
2024-03-09T10:22:18.417Z,16.95
2024-03-09T10:24:57.752Z,19.38
2024-03-09T10:27:29.133Z,16.90
2024-03-09T10:30:12.903Z,16.67
2024-03-09T10:32:45.009Z,16.90
2024-03-09T10:35:13.893Z,17.27
2024-03-09T10:37:44.162Z,17.05
2024-03-09T10:40:16.300Z,19.90
2024-03-09T10:42:47.525Z,19.63
2024-03-09T10:45:17.538Z,19.38
2024-03-09T10:47:51.468Z,18.73
2024-03-09T10:50:25.135Z,16.80
2024-03-09T10:53:11.722Z,17.95
2024-03-09T10:56:01.123Z,16.45
2024-03-09T10:58:30.146Z,15.50
2024-03-09T11:00:58.067Z,14.55
2024-03-09T11:03:27.987Z,13.93
2024-03-09T11:05:56.107Z,12.65
2024-03-09T11:08:25.013Z,14.73
2024-03-09T11:10:53.216Z,14.90
2024-03-09T11:13:21.595Z,15.68
2024-03-09T11:15:53.639Z,16.55
2024-03-09T11:18:24.150Z,16.67
2024-03-09T11:20:53.813Z,17.45
2024-03-09T11:23:24.941Z,16.58
2024-03-09T11:25:57.122Z,16.42
2024-03-09T11:28:33.991Z,16.25
2024-03-09T11:31:15.845Z,16.40
2024-03-09T11:33:51.503Z,18.67
2024-03-09T11:36:40.348Z,19.83
2024-03-09T11:39:09.094Z,18.13
2024-03-09T11:41:39.834Z,17.20
2024-03-09T11:44:07.725Z,17.13
2024-03-09T11:46:38.578Z,17.85
2024-03-09T11:49:07.156Z,14.75
2024-03-09T11:51:36.460Z,19.77
2024-03-09T11:54:17.068Z,17.98
2024-03-09T11:56:44.476Z,17.95
2024-03-09T11:59:13.988Z,19.00
2024-03-09T12:01:41.810Z,19.20
2024-03-09T12:04:11.333Z,22.67
2024-03-09T12:06:41.908Z,20.98
2024-03-09T12:09:12.675Z,21.17
2024-03-09T12:11:47.763Z,19.63
2024-03-09T12:14:17.472Z,18.95
2024-03-09T12:16:50.248Z,19.30
2024-03-09T12:19:18.925Z,22.55
2024-03-09T12:21:46.799Z,20.52
2024-03-09T12:24:15.232Z,21.48
2024-03-09T12:26:42.982Z,22.38
2024-03-09T12:29:14.149Z,20.58
2024-03-09T12:31:44.382Z,24.08
2024-03-09T12:34:12.553Z,25.58
2024-03-09T12:36:53.608Z,25.23
2024-03-09T12:39:21.891Z,21.05
2024-03-09T12:41:54.889Z,21.40
2024-03-09T12:44:24.132Z,22.98
2024-03-09T12:46:51.825Z,23.08
2024-03-09T12:49:20.260Z,20.77
2024-03-09T12:51:53.181Z,22.15
2024-03-09T12:54:21.340Z,24.35
2024-03-09T12:56:50.778Z,26.02
2024-03-09T12:59:28.334Z,23.38
2024-03-09T13:01:57.106Z,25.42
2024-03-09T13:04:27.392Z,22.40
2024-03-09T13:06:58.367Z,25.15
2024-03-09T13:09:34.204Z,26.42
2024-03-09T13:12:06.541Z,26.38
2024-03-09T13:17:07.553Z,23.35
2024-03-09T13:19:38.375Z,25.73
2024-03-09T13:22:08.090Z,21.83
2024-03-09T13:24:36.747Z,22.52
2024-03-09T13:27:04.240Z,22.33
2024-03-09T13:29:32.436Z,20.67
2024-03-09T13:32:00.667Z,21.80
2024-03-09T13:34:32.362Z,18.77
2024-03-09T13:37:01.040Z,18.10
2024-03-09T13:39:29.566Z,17.00
2024-03-09T13:41:58.906Z,17.05
2024-03-09T13:44:26.762Z,18.55
2024-03-09T13:46:54.356Z,20.08
2024-03-09T13:49:22.169Z,17.17
2024-03-09T13:51:49.866Z,21.25
2024-03-09T13:54:19.723Z,17.05
2024-03-09T13:56:47.986Z,17.20
2024-03-09T13:59:16.835Z,18.65
2024-03-09T14:01:46.204Z,23.45
2024-03-09T14:04:15.549Z,33.38
2024-03-09T14:06:57.347Z,25.27
2024-03-09T14:09:33.775Z,17.15
2024-03-09T14:12:01.612Z,23.10
2024-03-09T14:14:29.774Z,18.23
2024-03-09T14:16:57.484Z,28.63
2024-03-09T14:19:25.296Z,20.88
2024-03-09T14:21:54.484Z,16.75
2024-03-09T14:24:22.210Z,18.33
2024-03-09T14:26:49.728Z,17.80
2024-03-09T14:29:21.717Z,18.30
2024-03-09T14:34:20.195Z,20.45
2024-03-09T14:36:47.826Z,18.92
2024-03-09T14:39:18.846Z,17.50
2024-03-09T14:41:46.788Z,18.35
2024-03-09T14:44:14.689Z,17.90
2024-03-09T14:46:42.398Z,17.60
2024-03-09T14:49:10.902Z,17.48
2024-03-09T14:51:40.678Z,16.67
2024-03-09T14:54:08.398Z,17.80
2024-03-09T14:56:35.854Z,16.95
2024-03-09T14:59:11.914Z,18.88
2024-03-09T15:01:39.546Z,16.20
2024-03-09T15:04:10.085Z,15.50
2024-03-09T15:06:37.864Z,16.25
2024-03-09T15:09:10.220Z,15.73
2024-03-09T15:14:06.209Z,14.60
2024-03-09T15:16:33.759Z,15.63
2024-03-09T15:19:01.399Z,16.05
2024-03-09T15:21:28.899Z,17.23
2024-03-09T15:23:58.813Z,15.88
2024-03-09T15:26:30.171Z,16.58
2024-03-09T15:28:59.848Z,15.68
2024-03-09T15:31:28.591Z,16.20
2024-03-09T15:33:57.051Z,18.15
2024-03-09T15:36:25.708Z,17.20
2024-03-09T15:38:55.641Z,16.95
2024-03-09T15:41:23.604Z,15.23
2024-03-09T15:43:51.592Z,15.02
2024-03-09T15:46:20.220Z,15.82
2024-03-09T15:48:49.888Z,15.50
2024-03-09T15:51:19.915Z,15.27
2024-03-09T15:53:48.171Z,15.88
2024-03-09T15:56:21.614Z,18.67
2024-03-09T15:58:50.970Z,17.35
2024-03-09T16:01:23.457Z,17.73
2024-03-09T16:03:52.707Z,18.27
2024-03-09T16:06:20.257Z,18.15
2024-03-09T16:08:48.230Z,18.88
2024-03-09T16:11:16.039Z,21.48
2024-03-09T16:13:43.985Z,18.63
2024-03-09T16:16:15.383Z,20.42
2024-03-09T16:21:11.350Z,19.38
2024-03-09T16:23:41.256Z,21.60
2024-03-09T16:26:09.738Z,20.15
2024-03-09T16:28:37.979Z,20.10
2024-03-09T16:31:06.389Z,20.00
2024-03-09T16:33:34.796Z,21.02
2024-03-09T16:36:03.785Z,19.77
2024-03-09T16:38:33.059Z,20.17
2024-03-09T16:41:03.020Z,20.58
2024-03-09T16:43:35.090Z,22.08
2024-03-09T16:46:07.708Z,20.33
2024-03-09T16:48:37.138Z,19.02
2024-03-09T16:51:09.260Z,19.45
2024-03-09T16:53:41.135Z,20.08
2024-03-09T16:56:10.913Z,18.67
2024-03-09T16:58:40.891Z,17.52
2024-03-09T17:01:08.977Z,17.98
2024-03-09T17:03:36.679Z,16.98
2024-03-09T17:06:04.454Z,16.67
2024-03-09T17:08:32.378Z,15.30
2024-03-09T17:11:00.123Z,17.48
2024-03-09T17:13:28.465Z,17.00
2024-03-09T17:15:59.835Z,17.33
2024-03-09T17:18:29.312Z,16.52
2024-03-09T17:20:56.677Z,16.90
2024-03-09T17:23:28.718Z,16.45
2024-03-09T17:25:56.334Z,17.65
2024-03-09T17:28:24.263Z,16.55
2024-03-09T17:30:51.979Z,16.70
2024-03-09T17:33:19.751Z,16.33
2024-03-09T17:35:47.204Z,17.70
2024-03-09T17:38:15.034Z,16.75
2024-03-09T17:40:48.593Z,17.58
2024-03-09T17:43:17.514Z,15.52
2024-03-09T17:45:46.924Z,15.40
2024-03-09T17:48:15.134Z,14.95
2024-03-09T17:50:43.450Z,15.60
2024-03-09T17:53:11.464Z,15.38
2024-03-09T17:55:39.402Z,16.15
2024-03-09T17:58:10.566Z,15.52
2024-03-09T18:00:40.126Z,15.10
2024-03-09T18:03:15.064Z,16.20
2024-03-09T18:05:42.690Z,16.60
2024-03-09T18:08:11.465Z,16.15
2024-03-09T18:10:41.753Z,16.75
2024-03-09T18:13:14.678Z,16.17
2024-03-09T18:15:45.467Z,16.42
2024-03-09T18:18:14.621Z,18.40
2024-03-09T18:20:43.576Z,17.88
2024-03-09T18:23:12.566Z,17.33
2024-03-09T18:25:41.092Z,20.05
2024-03-09T18:28:13.583Z,17.30
2024-03-09T18:30:41.116Z,17.20
2024-03-09T18:33:14.412Z,18.88
2024-03-09T18:35:43.444Z,18.42
2024-03-09T18:38:15.449Z,18.80
2024-03-09T18:43:11.027Z,18.10
2024-03-09T18:45:38.431Z,20.35
2024-03-09T18:48:06.497Z,19.98
2024-03-09T18:50:34.125Z,20.35
2024-03-09T18:53:03.259Z,19.67
2024-03-09T18:55:31.879Z,21.15
2024-03-09T18:58:01.231Z,20.77
2024-03-09T19:00:32.741Z,20.25
2024-03-09T19:05:30.215Z,19.70
2024-03-09T19:08:01.164Z,21.55
2024-03-09T19:10:29.330Z,20.30
2024-03-09T19:12:57.150Z,19.92
2024-03-09T19:15:27.090Z,19.67
2024-03-09T19:17:55.629Z,20.38
2024-03-09T19:20:35.374Z,19.65
2024-03-09T19:23:04.205Z,19.92
2024-03-09T19:25:32.207Z,21.73
2024-03-09T19:28:00.267Z,20.80
2024-03-09T19:30:30.830Z,21.10
2024-03-09T19:32:59.763Z,20.40
2024-03-09T19:35:29.342Z,22.88
2024-03-09T19:37:59.624Z,21.67
2024-03-09T19:40:28.558Z,20.80
2024-03-09T19:42:59.215Z,20.02
2024-03-09T19:45:31.578Z,19.30
2024-03-09T19:48:00.387Z,21.38
2024-03-09T19:50:33.286Z,20.80
2024-03-09T19:53:01.149Z,20.60
2024-03-09T19:55:30.808Z,21.83
2024-03-09T19:58:00.343Z,20.73
2024-03-09T20:00:33.080Z,20.63
2024-03-09T20:03:01.335Z,20.95
2024-03-09T20:05:37.844Z,21.08
2024-03-09T20:08:06.014Z,21.38
2024-03-09T20:10:34.086Z,21.80
2024-03-09T20:13:02.100Z,21.52
2024-03-09T20:15:30.278Z,20.67
2024-03-09T20:17:59.444Z,21.92
2024-03-09T20:20:29.068Z,21.33
2024-03-09T20:23:01.734Z,21.90
2024-03-09T20:25:29.383Z,21.00
2024-03-09T20:27:57.209Z,22.20
2024-03-09T20:30:25.540Z,20.63
2024-03-09T20:32:53.801Z,21.60
2024-03-09T20:35:21.589Z,21.73
2024-03-09T20:37:49.796Z,20.83
2024-03-09T20:40:19.208Z,20.48
2024-03-09T20:42:53.091Z,21.90
2024-03-09T20:45:22.772Z,22.10
2024-03-09T20:47:51.112Z,22.08
2024-03-09T20:50:22.099Z,21.95
2024-03-09T20:53:00.164Z,21.75
2024-03-09T20:55:31.320Z,23.17
2024-03-09T20:57:59.329Z,22.65
2024-03-09T21:00:29.476Z,22.40
2024-03-09T21:02:58.984Z,22.45
2024-03-09T21:05:26.607Z,22.88
2024-03-09T21:07:54.449Z,23.85
2024-03-09T21:10:23.250Z,22.98
2024-03-09T21:12:51.079Z,23.98
2024-03-09T21:15:19.683Z,23.95
2024-03-09T21:17:48.739Z,23.52
2024-03-09T21:20:17.726Z,22.77
2024-03-09T21:22:46.142Z,24.48
2024-03-09T21:25:14.823Z,23.80
2024-03-09T21:27:44.486Z,26.05
2024-03-09T21:30:15.954Z,24.90
2024-03-09T21:32:48.643Z,25.10
2024-03-09T21:37:47.520Z,24.10
2024-03-09T21:40:16.852Z,24.98
2024-03-09T21:42:45.743Z,24.05
2024-03-09T21:45:15.482Z,24.00
2024-03-09T21:47:47.492Z,25.20
2024-03-09T21:50:18.270Z,26.40
2024-03-09T21:52:50.087Z,26.33
2024-03-09T21:55:17.728Z,26.85
2024-03-09T21:57:45.821Z,26.55
2024-03-09T22:00:24.044Z,27.55
2024-03-09T22:02:58.332Z,27.52
2024-03-09T22:05:27.746Z,27.20
2024-03-09T22:07:58.029Z,27.83
2024-03-09T22:10:26.954Z,27.42
2024-03-09T22:12:57.226Z,29.20
2024-03-09T22:15:28.552Z,28.77
2024-03-09T22:17:57.504Z,27.83
2024-03-09T22:20:25.855Z,27.42
2024-03-09T22:22:54.085Z,28.67
2024-03-09T22:25:21.615Z,29.58
2024-03-09T22:27:50.350Z,28.88
2024-03-09T22:30:18.570Z,26.98
2024-03-09T22:32:47.113Z,26.38
2024-03-09T22:35:16.368Z,29.75
2024-03-09T22:37:45.691Z,29.90
2024-03-09T22:40:17.326Z,28.85
2024-03-09T22:42:45.678Z,27.88
2024-03-09T22:45:16.590Z,30.48
2024-03-09T22:47:46.533Z,29.60
2024-03-09T22:50:26.958Z,28.85
2024-03-09T22:52:55.868Z,30.58
2024-03-09T22:55:25.449Z,30.08
2024-03-09T22:57:53.326Z,28.45
2024-03-09T23:00:20.835Z,28.70
2024-03-09T23:02:48.501Z,28.30
2024-03-09T23:05:16.992Z,27.80
2024-03-09T23:07:48.136Z,29.73
2024-03-09T23:10:15.585Z,28.98
2024-03-09T23:12:45.498Z,29.35
2024-03-09T23:15:17.293Z,31.17
2024-03-09T23:20:28.820Z,28.92
2024-03-09T23:22:59.604Z,31.15
2024-03-09T23:25:27.883Z,30.50
2024-03-09T23:27:56.169Z,30.00
2024-03-09T23:30:26.071Z,32.10
2024-03-09T23:32:56.104Z,30.48
2024-03-09T23:35:24.630Z,32.03
2024-03-09T23:37:52.677Z,31.63
2024-03-09T23:40:21.675Z,32.17
2024-03-09T23:42:49.861Z,32.38
2024-03-09T23:45:18.098Z,31.60
2024-03-09T23:47:46.987Z,31.70
2024-03-09T23:50:18.745Z,31.17
2024-03-09T23:52:50.162Z,30.25
2024-03-09T23:55:19.477Z,31.55
2024-03-09T23:57:49.165Z,30.38
